Time;durP1;ratioP1;P1;durP2;ratioP2;P2;SDS_P1;SDS_P2;PMS_P1;PMS_P2;Temp;Humidity;BMP_temperature;BMP_pressure;BME280_temperature;BME280_humidity;BME280_pressure;Samples;Min_cycle;Max_cycle;Signal;HPM_P1;HPM_P2
2023/07/13 08:38:55;;;;;;;7.72;3.92;;;;;;;22.53;100.00;100031.86;1538050;83;28354;-85
2023/07/13 08:41:23;;;;;;;9.43;4.70;;;;;;;22.49;100.00;100032.02;1510552;84;21439;-84
2023/07/13 08:43:54;;;;;;;13.58;4.42;;;;;;;22.51;100.00;100035.31;1521837;85;21402;-82
2023/07/13 08:46:40;;;;;;;13.50;5.50;;;;;;;22.52;100.00;100049.07;1522627;85;21661;-84
2023/07/13 08:49:23;;;;;;;8.40;3.95;;;;;;;22.49;100.00;100050.89;1509747;85;21322;-86
2023/07/13 08:52:03;;;;;;;11.45;4.60;;;;;;;22.46;100.00;99979.91;1513305;85;21511;-85
2023/07/13 08:54:36;;;;;;;;;;;;;;;22.39;100.00;99836.88;1515811;84;21321;-82
2023/07/13 08:57:16;;;;;;;14.78;5.10;;;;;;;22.30;100.00;99804.09;1516237;85;20285;-85
2023/07/13 08:59:44;;;;;;;23.18;4.33;;;;;;;22.26;100.00;99886.47;1521382;86;21380;-84
2023/07/13 09:02:28;;;;;;;11.22;3.85;;;;;;;22.27;100.00;99939.34;1526836;85;21432;-84
2023/07/13 09:05:24;;;;;;;9.60;4.35;;;;;;;22.31;100.00;99917.59;1515341;85;22504;-84
2023/07/13 09:08:08;;;;;;;10.53;4.03;;;;;;;22.36;100.00;99915.54;1521270;85;21669;-85
2023/07/13 09:10:45;;;;;;;13.48;3.92;;;;;;;22.34;100.00;99859.15;1517281;86;21387;-85
2023/07/13 09:13:35;;;;;;;11.60;4.83;;;;;;;22.38;100.00;99894.53;1516573;86;21579;-85
2023/07/13 09:16:03;;;;;;;10.00;4.42;;;;;;;22.40;100.00;99872.20;1512500;86;21527;-83
2023/07/13 09:18:42;;;;;;;17.92;4.83;;;;;;;22.38;100.00;99929.58;1511499;85;21595;-84
2023/07/13 09:21:19;;;;;;;12.18;4.60;;;;;;;22.29;100.00;100038.30;1512328;85;21520;-83
2023/07/13 09:23:47;;;;;;;10.40;3.47;;;;;;;22.18;100.00;100079.03;1524376;85;21477;-81
2023/07/13 09:26:21;;;;;;;10.40;4.22;;;;;;;22.08;100.00;100068.77;1497740;86;21462;-82
2023/07/13 09:28:59;;;;;;;17.80;4.62;;;;;;;22.06;100.00;100068.17;1515344;86;21424;-83
2023/07/13 09:31:30;;;;;;;10.32;4.03;;;;;;;22.01;100.00;100064.53;1502639;86;21446;-83
2023/07/13 09:33:58;;;;;;;10.03;3.70;;;;;;;21.95;100.00;100054.69;1511408;85;21417;-83
2023/07/13 09:36:31;;;;;;;12.30;3.92;;;;;;;21.86;100.00;100046.93;1511286;86;21602;-82
2023/07/13 09:39:28;;;;;;;12.23;3.25;;;;;;;21.90;100.00;100033.84;1516263;85;21506;-82
2023/07/13 09:42:21;;;;;;;12.03;3.50;;;;;;;21.95;100.00;100026.39;1509075;85;21507;-82
2023/07/13 09:44:55;;;;;;;13.68;3.80;;;;;;;22.04;100.00;100029.06;1514196;85;21461;-79
2023/07/13 09:47:27;;;;;;;13.43;4.42;;;;;;;22.20;100.00;100016.80;1514882;86;21588;-81
2023/07/13 09:50:04;;;;;;;15.13;4.45;;;;;;;22.41;100.00;100009.98;1508516;85;21433;-81
2023/07/13 09:52:50;;;;;;;16.00;5.15;;;;;;;22.64;100.00;99998.34;1511074;84;21646;-84
2023/07/13 09:55:37;;;;;;;15.00;4.62;;;;;;;22.89;100.00;99996.18;1515714;85;21425;-84
2023/07/13 09:58:19;;;;;;;15.85;4.50;;;;;;;23.17;100.00;99977.06;1510465;86;21609;-85
2023/07/13 10:01:05;;;;;;;14.05;4.80;;;;;;;23.36;100.00;99972.26;1508123;86;21462;-83
2023/07/13 10:03:39;;;;;;;10.50;4.97;;;;;;;23.58;100.00;99975.08;1511240;86;22246;-83
2023/07/13 10:06:16;;;;;;;17.67;5.45;;;;;;;23.80;100.00;99967.92;1522709;86;22548;-83
2023/07/13 10:08:49;;;;;;;20.45;4.72;;;;;;;23.96;100.00;99972.20;1518481;85;21439;-83
2023/07/13 10:11:30;;;;;;;13.13;4.92;;;;;;;24.08;100.00;99975.12;1527091;86;21418;-84
2023/07/13 10:14:17;;;;;;;16.60;5.35;;;;;;;24.41;100.00;99976.66;1523771;85;22579;-83
2023/07/13 10:16:46;;;;;;;18.77;6.15;;;;;;;24.85;100.00;99986.98;1513105;85;22297;-85
2023/07/13 10:19:25;;;;;;;14.58;5.58;;;;;;;25.17;100.00;99999.28;1514584;86;21431;-85
2023/07/13 10:22:08;;;;;;;15.43;5.12;;;;;;;25.39;100.00;99989.77;1519050;85;21409;-85
2023/07/13 10:24:39;;;;;;;10.10;5.47;;;;;;;25.64;100.00;99986.48;1511489;86;21617;-84
2023/07/13 10:27:25;;;;;;;11.38;5.62;;;;;;;25.96;100.00;99981.61;1518305;85;22057;-85
2023/07/13 10:30:19;;;;;;;16.17;5.78;;;;;;;26.13;100.00;99984.17;1516237;85;21454;-84
2023/07/13 10:32:47;;;;;;;13.35;6.12;;;;;;;26.27;100.00;99989.97;1511701;84;21595;-84
2023/07/13 10:35:21;;;;;;;10.32;5.53;;;;;;;26.45;100.00;99985.99;1516041;85;21439;-85
2023/07/13 10:38:06;;;;;;;11.43;7.00;;;;;;;26.67;100.00;99983.13;1519204;85;22400;-84
2023/07/13 10:40:44;;;;;;;16.57;7.08;;;;;;;26.76;98.41;99989.70;1511961;85;21432;-82
2023/07/13 10:43:19;;;;;;;11.85;7.17;;;;;;;26.71;97.30;100000.53;1519581;84;21682;-82
2023/07/13 10:50:27;;;;;;;15.55;6.90;;;;;;;26.84;96.67;99989.71;1507940;86;21654;-84
2023/07/13 10:53:01;;;;;;;16.23;6.97;;;;;;;26.80;95.55;99987.27;1528641;85;21410;-86
2023/07/13 10:55:53;;;;;;;15.05;7.62;;;;;;;26.71;95.86;99995.10;1506990;85;21652;-83
2023/07/13 10:58:25;;;;;;;15.28;7.83;;;;;;;26.61;95.91;100003.19;1514013;86;21608;-84
2023/07/13 11:01:00;;;;;;;21.02;7.30;;;;;;;26.50;96.40;99999.63;1505585;86;21720;-82
2023/07/13 11:03:29;;;;;;;13.38;6.60;;;;;;;26.45;94.68;99988.70;1520004;85;21483;-82
2023/07/13 11:06:37;;;;;;;14.07;8.18;;;;;;;26.49;95.09;99984.38;1516806;85;21484;-82
2023/07/13 11:09:36;;;;;;;12.88;6.75;;;;;;;26.73;95.91;99979.38;1502663;85;21683;-84
2023/07/13 11:12:18;;;;;;;11.30;6.53;;;;;;;27.26;92.67;99976.02;1505823;86;21594;-83
2023/07/13 11:14:58;;;;;;;9.10;6.33;;;;;;;27.26;92.67;99976.02;1512380;86;21922;-82
2023/07/13 11:17:58;;;;;;;20.32;7.90;;;;;;;27.34;93.12;99968.70;1515101;86;22364;-83
2023/07/13 11:20:26;;;;;;;13.50;7.95;;;;;;;27.57;91.30;99980.14;1502102;86;21454;-83
2023/07/13 11:23:12;;;;;;;15.40;7.97;;;;;;;27.47;90.41;99988.27;1511752;85;23066;-83
2023/07/13 11:25:38;;;;;;;16.40;7.65;;;;;;;27.33;90.53;99996.94;1513802;85;21453;-84
2023/07/13 11:28:16;;;;;;;18.05;7.87;;;;;;;27.21;90.33;100001.80;1531572;85;21550;-83
2023/07/13 11:30:56;;;;;;;12.40;8.43;;;;;;;27.05;90.26;99994.14;1509194;86;22217;-83
2023/07/13 11:33:30;;;;;;;11.25;7.87;;;;;;;26.84;90.41;100002.73;1510656;86;21581;-81
2023/07/13 11:36:16;;;;;;;18.40;7.37;;;;;;;26.71;91.28;99992.39;1518122;85;21653;-80
2023/07/13 11:39:03;;;;;;;8.95;6.15;;;;;;;26.69;91.67;99991.83;1522441;84;21469;-80
2023/07/13 11:41:34;;;;;;;12.30;6.87;;;;;;;26.75;92.31;99985.34;1513147;85;21454;-80
2023/07/13 11:44:17;;;;;;;10.15;6.47;;;;;;;26.90;92.22;99990.00;1490911;87;21470;-80
2023/07/13 11:46:55;;;;;;;7.67;5.08;;;;;;;27.18;90.60;99977.90;1502062;86;21610;-79
2023/07/13 11:49:24;;;;;;;7.53;4.97;;;;;;;27.34;90.58;99970.61;1494498;87;21550;-81
2023/07/13 11:51:54;;;;;;;;;;;;;;;27.48;90.10;99974.94;1513337;85;21417;-81
2023/07/13 11:54:30;;;;;;;29.70;12.20;;;;;;;27.62;87.67;99971.97;1505690;86;20785;-80
2023/07/13 11:57:06;;;;;;;9.15;6.15;;;;;;;27.67;88.32;99971.42;1506363;85;22328;-82
2023/07/13 11:59:35;;;;;;;10.15;7.00;;;;;;;27.66;87.57;99974.42;1488597;87;21624;-81
2023/07/13 12:02:03;;;;;;;8.95;6.30;;;;;;;27.57;88.67;99986.38;1511219;86;21462;-82
2023/07/13 12:04:33;;;;;;;18.17;6.97;;;;;;;27.47;87.75;99989.62;1484007;87;22555;-80
2023/07/13 12:07:14;;;;;;;9.45;6.53;;;;;;;27.21;87.77;99997.73;1506248;85;21564;-81
2023/07/13 12:09:41;;;;;;;18.40;7.97;;;;;;;26.96;88.45;99994.39;1492052;87;21521;-81
2023/07/13 12:12:15;;;;;;;18.35;8.20;;;;;;;26.74;89.50;99998.09;1511264;85;21624;-83
2023/07/13 12:14:42;;;;;;;13.20;7.85;;;;;;;26.62;90.82;99987.20;1492458;87;21439;-81
2023/07/13 12:17:19;;;;;;;13.30;8.80;;;;;;;26.56;91.18;99999.92;1522746;85;21627;-81
2023/07/13 12:19:47;;;;;;;13.53;9.00;;;;;;;26.66;91.50;99995.08;1468087;87;21662;-80
2023/07/13 12:22:16;;;;;;;13.70;8.83;;;;;;;27.02;92.05;99989.25;1523143;85;21892;-80
2023/07/13 12:24:44;;;;;;;13.13;9.63;;;;;;;27.16;90.65;99991.77;1451208;87;21410;-80
2023/07/13 12:27:27;;;;;;;10.15;8.15;;;;;;;27.31;90.34;99997.77;1512249;86;21704;-80
2023/07/13 12:30:01;;;;;;;11.78;7.95;;;;;;;27.63;90.61;99994.00;1493513;87;22595;-81
2023/07/13 12:32:32;;;;;;;11.50;7.40;;;;;;;27.76;87.29;99993.44;1507386;85;21432;-81
2023/07/13 12:35:26;;;;;;;14.28;6.37;;;;;;;27.87;86.35;99989.67;1486147;87;21601;-79
2023/07/13 12:41:42;;;;;;;10.82;6.17;;;;;;;27.74;84.37;99991.56;1466625;87;21480;-79
2023/07/13 12:55:06;;;;;;;12.07;6.65;;;;;;;27.53;87.69;99977.13;1446518;90;21737;-81
2023/07/13 12:57:43;;;;;;;7.58;5.12;;;;;;;28.04;87.31;99974.97;1449456;90;21589;-79
2023/07/13 13:00:49;;;;;;;4.75;3.85;;;;;;;28.23;85.82;99973.86;1446406;90;21418;-79
2023/07/13 13:03:25;;;;;;;6.72;4.33;;;;;;;28.24;85.19;99973.57;1443721;90;22456;-81
2023/07/13 13:06:23;;;;;;;6.83;4.15;;;;;;;28.75;84.84;99973.44;1444083;90;21702;-80
2023/07/13 13:08:55;;;;;;;6.50;4.47;;;;;;;29.00;83.87;99965.69;1442940;90;21529;-79
2023/07/13 13:11:32;;;;;;;11.50;4.20;;;;;;;29.40;83.42;99964.36;1436022;88;22490;-80
2023/07/13 13:14:06;;;;;;;6.03;3.50;;;;;;;29.71;80.29;99970.41;1462647;87;21413;-79
2023/07/13 13:17:38;;;;;;;4.22;3.83;;;;;;;29.86;78.68;99964.00;1471376;88;21516;-80
2023/07/13 13:19:35;;;;;;;3.95;3.33;;;;;;;30.09;77.38;99955.04;1454610;88;21567;-80
2023/07/13 13:22:08;;;;;;;5.05;3.77;;;;;;;30.19;76.47;99949.23;1475232;88;21486;-80
2023/07/13 13:24:41;;;;;;;3.72;3.30;;;;;;;30.22;75.23;99960.97;1471562;88;22549;-79
2023/07/13 13:27:38;;;;;;;3.50;3.20;;;;;;;30.40;75.73;99956.11;1475829;88;22395;-80
2023/07/13 13:30:48;;;;;;;;;;;;;;;;;;;;;
2023/07/13 13:33:30;;;;;;;4.47;3.40;;;;;;;31.29;74.77;99952.75;1464316;88;23142;-79
2023/07/13 13:36:24;;;;;;;4.12;3.42;;;;;;;31.52;71.91;99960.63;1389278;92;22476;-80
2023/07/13 13:39:56;;;;;;;4.17;3.45;;;;;;;31.36;71.34;99960.07;1422291;88;22419;-80
2023/07/13 13:42:43;;;;;;;;;;;;;;;;;;;;;
2023/07/13 13:45:32;;;;;;;;;;;;;;;;;;;;;
2023/07/13 13:48:09;;;;;;;4.78;3.55;;;;;;;30.49;70.99;99955.72;1426868;88;21619;-81
2023/07/13 14:04:46;;;;;;;10.10;3.52;;;;;;;31.14;69.09;99946.16;1333258;95;20312;-81
2023/07/13 14:10:32;;;;;;;6.28;2.98;;;;;;;32.09;66.60;99933.93;1316189;98;21687;-79
2023/07/13 14:13:11;;;;;;;7.05;3.45;;;;;;;32.53;64.57;99943.48;1335622;98;21801;-79
2023/07/13 14:15:53;;;;;;;3.20;2.58;;;;;;;32.81;63.92;99939.34;1335807;98;21695;-79
2023/07/13 14:19:00;;;;;;;;;;;;;;;;;;;;;
2023/07/13 14:26:36;;;;;;;;;;;;;;;;;;;;;
2023/07/13 14:29:14;;;;;;;5.12;2.98;;;;;;;33.29;62.43;99940.19;1296205;101;21801;-83
2023/07/13 14:32:06;;;;;;;3.62;2.47;;;;;;;33.77;54.19;99942.29;1378427;92;22074;-81
2023/07/13 14:47:34;;;;;;;2.62;2.25;;;;;;;35.00;42.42;99952.02;1299248;100;22561;-84
2023/07/13 14:50:48;;;;;;;5.33;2.50;;;;;;;35.30;41.47;99943.95;1296530;100;21718;-81
2023/07/13 14:56:32;;;;;;;7.58;2.10;;;;;;;35.83;40.35;99949.64;1207157;105;21873;-81
2023/07/13 14:59:28;;;;;;;5.65;2.77;;;;;;;35.86;39.18;99933.03;1233432;105;21556;-84
2023/07/13 15:02:04;;;;;;;3.65;2.22;;;;;;;36.02;37.83;99929.95;1240235;104;21521;-82
2023/07/13 15:04:49;;;;;;;3.65;2.17;;;;;;;36.37;38.88;99927.89;1192132;108;21835;-83
2023/07/13 15:07:32;;;;;;;4.97;1.95;;;;;;;36.36;38.26;99923.50;1207914;107;23038;-82
2023/07/13 15:12:40;;;;;;;3.58;2.45;;;;;;;36.55;37.83;99925.06;1159516;112;21861;-82
2023/07/13 15:15:07;;;;;;;3.25;2.22;;;;;;;36.77;37.75;99912.89;1205046;109;21724;-84
2023/07/13 15:17:38;;;;;;;4.10;2.20;;;;;;;36.90;37.20;99919.30;1235976;103;21606;-84
2023/07/13 15:20:18;;;;;;;4.95;2.72;;;;;;;36.88;36.65;99921.00;1274398;103;21614;-83
2023/07/13 15:22:46;;;;;;;3.58;2.80;;;;;;;36.82;36.98;99927.28;1268980;102;21621;-82
2023/07/13 15:25:24;;;;;;;3.22;1.95;;;;;;;36.40;37.18;99922.84;1257986;103;21636;-83
2023/07/13 15:27:54;;;;;;;5.55;2.30;;;;;;;36.40;37.72;99926.97;1241822;105;21527;-84
2023/07/13 15:30:21;;;;;;;8.53;3.33;;;;;;;36.44;37.14;99937.58;1251278;104;21541;-82
2023/07/13 15:32:49;;;;;;;3.08;1.95;;;;;;;36.36;37.57;99933.15;1243386;102;21765;-83
2023/07/13 15:35:19;;;;;;;4.47;2.60;;;;;;;36.20;37.75;99934.07;1266001;102;21554;-81
2023/07/13 15:37:48;;;;;;;6.70;2.95;;;;;;;35.84;36.89;99958.70;1285118;101;21615;-82
2023/07/13 15:40:15;;;;;;;8.83;2.55;;;;;;;35.35;36.10;99958.92;1299904;101;21606;-83
2023/07/13 15:42:44;;;;;;;3.83;2.33;;;;;;;35.01;37.26;99966.00;1318980;99;21442;-81
2023/07/13 15:45:21;;;;;;;2.77;2.40;;;;;;;34.79;37.98;99959.29;1325965;99;21642;-83
2023/07/13 15:47:49;;;;;;;3.95;2.02;;;;;;;34.31;38.30;99965.02;1323128;99;22296;-82
2023/07/13 15:50:24;;;;;;;4.28;2.35;;;;;;;33.90;38.77;99963.36;1320069;99;22407;-81
2023/07/13 15:52:54;;;;;;;3.37;2.30;;;;;;;33.52;39.81;99973.95;1293427;101;21543;-82
2023/07/13 15:55:21;;;;;;;8.10;2.37;;;;;;;33.17;40.30;99976.92;1343140;97;21635;-82
2023/07/13 15:57:51;;;;;;;7.65;2.47;;;;;;;32.56;40.51;99991.36;1364009;96;21553;-82
2023/07/13 16:00:23;;;;;;;3.65;2.50;;;;;;;32.12;41.62;99998.20;1364737;95;21477;-82
2023/07/13 16:02:51;;;;;;;3.35;2.17;;;;;;;31.59;42.31;100001.26;1352905;95;21423;-79
2023/07/13 16:05:18;;;;;;;7.78;2.33;;;;;;;31.25;43.33;100003.67;1345433;97;21780;-80
2023/07/13 16:07:47;;;;;;;5.20;2.20;;;;;;;31.12;43.76;100011.23;1356780;95;21642;-79
2023/07/13 16:10:19;;;;;;;5.42;2.70;;;;;;;31.00;44.67;100019.86;1416299;88;21514;-77
2023/07/13 16:12:46;;;;;;;5.55;2.80;;;;;;;30.84;45.52;100009.67;1443893;88;22553;-77
2023/07/13 16:15:18;;;;;;;3.12;2.40;;;;;;;30.57;45.66;100010.25;1451899;88;21426;-76
2023/07/13 16:17:46;;;;;;;6.05;2.45;;;;;;;30.33;45.80;100008.89;1449504;88;21374;-78
2023/07/13 16:20:14;;;;;;;2.77;2.10;;;;;;;30.03;46.50;100003.14;1454505;88;21558;-80
2023/07/13 16:22:46;;;;;;;4.25;2.65;;;;;;;29.80;48.25;99995.97;1451595;88;22981;-78
2023/07/13 16:25:19;;;;;;;9.13;2.22;;;;;;;29.58;47.86;100001.05;1439434;91;21661;-78
2023/07/13 16:27:49;;;;;;;6.25;2.65;;;;;;;29.21;48.77;100000.46;1436581;90;21382;-78
2023/07/13 16:30:26;;;;;;;;;;;;;;;28.96;50.45;100006.02;1422013;91;21451;-77
2023/07/13 16:33:02;;;;;;;5.37;2.30;;;;;;;28.65;50.95;100000.69;1408139;90;20415;-78
2023/07/13 16:35:29;;;;;;;6.10;2.80;;;;;;;28.42;50.74;100012.20;1444126;90;21441;-78
2023/07/13 16:37:56;;;;;;;15.25;2.62;;;;;;;28.24;50.69;100017.10;1456537;88;22357;-78
2023/07/13 16:40:30;;;;;;;6.70;2.60;;;;;;;28.03;51.21;100011.44;1446587;90;22164;-77
2023/07/13 16:42:58;;;;;;;6.08;2.50;;;;;;;27.84;53.65;100037.80;1437585;88;21472;-78
2023/07/13 16:45:30;;;;;;;3.50;2.08;;;;;;;27.31;60.90;100056.18;1442922;90;22419;-77
2023/07/13 16:47:57;;;;;;;4.05;2.58;;;;;;;26.72;62.26;100065.39;1443277;90;21582;-78
2023/07/13 16:50:28;;;;;;;2.58;1.70;;;;;;;26.23;66.30;100082.41;1447617;90;21590;-78
2023/07/13 16:52:54;;;;;;;3.27;1.77;;;;;;;25.84;67.27;100082.09;1440456;90;21523;-77
2023/07/13 16:55:31;;;;;;;2.90;1.80;;;;;;;25.41;66.61;100074.85;1443876;90;21487;-76
2023/07/13 16:57:50;;;;;;;3.62;1.90;;;;;;;25.05;67.30;100077.09;1440198;90;21531;-78
2023/07/13 17:00:27;;;;;;;3.62;2.37;;;;;;;24.87;68.08;100066.58;1443852;90;23040;-77
2023/07/13 17:03:05;;;;;;;2.15;1.57;;;;;;;24.73;70.80;100064.23;1449048;90;21509;-77
2023/07/13 17:05:40;;;;;;;2.77;1.67;;;;;;;24.54;74.26;100064.22;1443700;90;22023;-77
2023/07/13 17:08:14;;;;;;;3.90;2.45;;;;;;;24.39;74.96;100057.21;1445336;90;21555;-77
2023/07/13 17:10:44;;;;;;;6.42;2.00;;;;;;;24.24;77.89;100071.32;1439892;90;22600;-77
2023/07/13 17:13:13;;;;;;;6.90;2.27;;;;;;;24.13;76.64;100077.09;1448071;90;21538;-77
2023/07/13 17:15:40;;;;;;;3.98;1.77;;;;;;;24.00;79.81;100081.48;1448109;90;21815;-77
2023/07/13 17:18:07;;;;;;;5.08;2.37;;;;;;;23.95;80.69;100090.84;1439604;90;22551;-78
2023/07/13 17:20:44;;;;;;;5.47;2.02;;;;;;;23.94;82.76;100095.95;1439058;90;21465;-77
2023/07/13 17:23:24;;;;;;;2.72;2.22;;;;;;;23.89;88.93;100102.63;1449693;90;22479;-77
2023/07/13 17:25:55;;;;;;;5.92;2.52;;;;;;;23.84;89.82;100104.17;1447511;90;21487;-78
2023/07/13 17:28:23;;;;;;;10.50;3.62;;;;;;;23.80;89.61;100108.42;1449401;90;21679;-79
2023/07/13 17:30:53;;;;;;;8.80;3.17;;;;;;;23.79;90.57;100106.77;1443331;90;21510;-78
2023/07/13 17:33:35;;;;;;;;;;;;;;;23.70;94.60;100106.88;1437423;90;21451;-78
2023/07/13 17:36:05;;;;;;;6.17;3.35;;;;;;;23.62;96.29;100116.17;1437652;90;20769;-78
2023/07/13 17:38:40;;;;;;;4.20;3.10;;;;;;;23.51;97.21;100117.58;1446843;90;22573;-78
2023/07/13 17:41:11;;;;;;;6.50;3.90;;;;;;;23.41;98.66;100125.73;1440774;90;21509;-78
2023/07/13 17:43:38;;;;;;;6.65;2.90;;;;;;;23.33;100.00;100119.89;1442016;90;21597;-77
2023/07/13 17:46:15;;;;;;;6.08;3.70;;;;;;;23.26;100.00;100129.48;1448366;90;21486;-77
2023/07/13 17:48:47;;;;;;;6.10;3.20;;;;;;;23.23;99.33;100125.92;1444700;90;21493;-78
2023/07/13 17:51:16;;;;;;;7.95;3.30;;;;;;;23.25;99.15;100134.61;1445751;90;21546;-77
2023/07/13 17:53:43;;;;;;;5.03;2.70;;;;;;;23.26;99.54;100140.29;1442332;90;22215;-77
2023/07/13 17:56:12;;;;;;;6.60;2.83;;;;;;;23.22;100.00;100141.84;1441694;90;21465;-78
2023/07/13 17:58:42;;;;;;;5.40;3.00;;;;;;;23.19;100.00;100147.71;1446430;90;21668;-77
2023/07/13 18:01:15;;;;;;;4.78;3.33;;;;;;;23.13;100.00;100156.73;1441252;90;21650;-77
2023/07/13 18:03:45;;;;;;;4.53;3.40;;;;;;;23.07;99.68;100160.38;1440403;90;21413;-75
2023/07/13 18:06:29;;;;;;;4.03;3.12;;;;;;;23.00;99.50;100171.84;1438624;90;21730;-78
2023/07/13 18:08:59;;;;;;;4.33;2.90;;;;;;;22.93;99.05;100172.75;1441826;90;21450;-78
2023/07/13 18:11:26;;;;;;;5.97;2.90;;;;;;;22.88;99.40;100164.53;1444807;90;21552;-77
2023/07/13 18:13:53;;;;;;;5.33;2.75;;;;;;;22.82;99.67;100162.78;1450305;90;22514;-77
2023/07/13 18:16:26;;;;;;;4.22;2.75;;;;;;;22.79;99.08;100161.05;1442855;90;21561;-76
2023/07/13 18:18:55;;;;;;;4.12;3.35;;;;;;;22.73;99.53;100154.75;1442663;90;21587;-75
2023/07/13 18:21:22;;;;;;;2.90;2.60;;;;;;;22.65;99.29;100151.86;1445101;90;21466;-77
2023/07/13 18:23:49;;;;;;;5.33;2.62;;;;;;;22.57;99.21;100164.88;1444084;90;21663;-76
2023/07/13 18:26:19;;;;;;;4.30;3.12;;;;;;;22.51;98.82;100163.39;1442668;90;21479;-77
2023/07/13 18:28:47;;;;;;;6.65;2.45;;;;;;;22.47;98.36;100156.84;1373832;90;21533;-76
2023/07/13 18:31:20;;;;;;;7.15;2.22;;;;;;;22.43;98.45;100167.77;1373046;90;21436;-76
2023/07/13 18:33:52;;;;;;;5.78;2.58;;;;;;;22.34;99.47;100167.82;1523465;90;21455;-76
2023/07/13 18:36:18;;;;;;;5.00;2.45;;;;;;;22.28;99.26;100168.75;1446276;90;22066;-77
2023/07/13 18:38:45;;;;;;;5.08;2.47;;;;;;;22.22;99.59;100170.49;1444735;90;22455;-77
2023/07/13 18:41:20;;;;;;;2.77;2.52;;;;;;;22.20;99.97;100178.51;1445644;90;21858;-76
2023/07/13 18:43:49;;;;;;;4.28;2.42;;;;;;;22.11;99.37;100164.51;1445397;90;21954;-77
2023/07/13 18:46:28;;;;;;;3.15;2.47;;;;;;;22.02;100.00;100173.97;1374834;90;21414;-75
2023/07/13 18:48:54;;;;;;;9.18;2.55;;;;;;;21.94;100.00;100184.53;1381005;90;21421;-77
2023/07/13 18:51:24;;;;;;;4.10;2.58;;;;;;;21.94;100.00;100184.53;1424684;90;21690;-75
2023/07/13 18:53:51;;;;;;;4.45;2.47;;;;;;;21.96;100.00;100183.80;1474232;90;21600;-76
2023/07/13 18:56:17;;;;;;;3.80;2.52;;;;;;;21.84;100.00;100177.54;1443351;90;21576;-76
2023/07/13 18:58:43;;;;;;;3.98;2.60;;;;;;;21.84;100.00;100177.54;1452314;90;21631;-77
2023/07/13 19:01:27;;;;;;;6.00;2.80;;;;;;;21.82;100.00;100189.06;1446069;90;22440;-77
2023/07/13 19:04:44;;;;;;;5.47;2.98;;;;;;;21.76;100.00;100188.63;1445462;90;21539;-77
2023/07/13 19:07:13;;;;;;;4.80;2.90;;;;;;;21.68;100.00;100185.70;1448636;90;22419;-77
2023/07/13 19:09:43;;;;;;;6.03;2.55;;;;;;;21.58;100.00;100193.52;1442493;90;22837;-76
2023/07/13 19:12:22;;;;;;;2.60;2.40;;;;;;;21.52;100.00;100201.97;1441668;90;21650;-77
2023/07/13 19:14:50;;;;;;;2.85;2.47;;;;;;;21.49;100.00;100197.03;1440779;90;21546;-76
2023/07/13 19:17:18;;;;;;;3.50;2.45;;;;;;;21.43;100.00;100193.05;1441272;90;21634;-77
2023/07/13 19:19:44;;;;;;;2.77;2.37;;;;;;;21.36;100.00;100190.41;1443022;90;21487;-75
2023/07/13 19:22:15;;;;;;;2.62;2.10;;;;;;;21.31;100.00;100192.95;1443815;90;21450;-76
2023/07/13 19:24:41;;;;;;;2.72;2.50;;;;;;;21.23;100.00;100194.58;1451145;90;22961;-77
2023/07/13 19:27:15;;;;;;;3.42;1.95;;;;;;;21.19;100.00;100195.03;1448305;90;21501;-77
2023/07/13 19:29:42;;;;;;;2.42;2.22;;;;;;;21.19;100.00;100184.27;1438903;90;21648;-77
2023/07/13 19:32:10;;;;;;;5.45;2.22;;;;;;;21.18;100.00;100176.43;1445766;90;21450;-76
2023/07/13 19:34:36;;;;;;;2.65;2.20;;;;;;;21.12;100.00;100177.33;1422429;90;22374;-76
2023/07/13 19:37:07;;;;;;;2.85;1.60;;;;;;;21.07;100.00;100177.16;1444689;90;21406;-75
2023/07/13 19:39:38;;;;;;;2.75;1.52;;;;;;;21.00;100.00;100183.94;1445065;90;21641;-76
2023/07/13 19:42:23;;;;;;;3.83;1.87;;;;;;;20.96;100.00;100194.85;1445378;90;21487;-77
2023/07/13 19:44:51;;;;;;;1.70;1.52;;;;;;;20.88;100.00;100195.95;1446100;90;21606;-77
2023/07/13 19:47:19;;;;;;;6.20;1.50;;;;;;;20.79;100.00;100196.45;1440387;90;21987;-77
2023/07/13 19:49:46;;;;;;;3.17;1.62;;;;;;;20.73;100.00;100196.29;1441923;90;21635;-77
2023/07/13 19:52:16;;;;;;;3.95;1.60;;;;;;;20.67;100.00;100190.45;1446526;90;21620;-77
2023/07/13 19:54:53;;;;;;;1.52;1.42;;;;;;;20.59;100.00;100182.65;1445119;90;21464;-76
2023/07/13 19:57:24;;;;;;;2.58;1.50;;;;;;;20.54;100.00;100191.89;1442197;90;21657;-77
2023/07/13 19:59:53;;;;;;;3.02;2.12;;;;;;;20.51;100.00;100205.73;1439933;90;21576;-79
2023/07/13 20:02:23;;;;;;;5.22;2.17;;;;;;;20.48;100.00;100200.80;1445466;90;21672;-78
2023/07/13 20:04:49;;;;;;;1.80;1.70;;;;;;;20.48;100.00;100206.17;1434883;90;21502;-79
2023/07/13 20:07:18;;;;;;;2.70;1.32;;;;;;;20.48;100.00;100204.83;1440506;90;21627;-79
2023/07/13 20:09:51;;;;;;;1.98;1.72;;;;;;;20.46;100.00;100206.94;1442013;90;21501;-77
2023/07/13 20:12:22;;;;;;;2.30;1.37;;;;;;;20.41;100.00;100210.78;1431997;90;21539;-78
2023/07/13 20:14:50;;;;;;;5.62;1.65;;;;;;;20.36;100.00;100223.52;1439917;90;21697;-80
2023/07/13 20:17:24;;;;;;;4.40;1.40;;;;;;;20.35;100.00;100221.06;1445145;90;21465;-79
2023/07/13 20:19:51;;;;;;;2.58;1.40;;;;;;;20.34;100.00;100224.28;1438670;90;21450;-77
2023/07/13 20:22:18;;;;;;;1.98;1.20;;;;;;;20.31;100.00;100219.31;1453664;90;21451;-80
2023/07/13 20:24:44;;;;;;;2.08;1.30;;;;;;;20.27;100.00;100217.58;1442637;90;22330;-80
2023/07/13 20:27:10;;;;;;;1.72;1.05;;;;;;;20.19;100.00;100236.64;1441231;90;21638;-79
2023/07/13 20:29:37;;;;;;;3.87;1.30;;;;;;;20.19;100.00;100237.98;1442416;90;21487;-77
2023/07/13 20:32:05;;;;;;;1.85;1.50;;;;;;;20.21;100.00;100234.57;1440102;90;21669;-80
2023/07/13 20:34:36;;;;;;;5.53;1.40;;;;;;;20.18;100.00;100236.87;1376881;90;21392;-80
2023/07/13 20:37:32;;;;;;;1.27;1.17;;;;;;;20.17;100.00;100237.40;1367962;91;21653;-79
2023/07/13 20:40:00;;;;;;;3.25;1.45;;;;;;;20.11;100.00;100238.26;1373497;90;21567;-79
2023/07/13 20:42:26;;;;;;;2.17;1.22;;;;;;;20.05;100.00;100239.09;1370315;90;21370;-80
2023/07/13 20:44:52;;;;;;;2.83;1.25;;;;;;;20.04;100.00;100256.26;1377716;90;21473;-79
2023/07/13 20:47:23;;;;;;;1.30;1.20;;;;;;;20.02;100.00;100252.95;1493098;90;21531;-78
2023/07/13 20:49:52;;;;;;;1.30;1.20;;;;;;;20.02;100.00;100252.45;1444410;90;21546;-78
2023/07/13 20:52:18;;;;;;;4.30;1.40;;;;;;;19.98;100.00;100250.40;1439506;90;21516;-79
2023/07/13 20:54:46;;;;;;;1.30;1.20;;;;;;;19.93;100.00;100255.58;1440886;90;21627;-77
2023/07/13 20:57:12;;;;;;;1.67;1.40;;;;;;;19.91;100.00;100256.30;1441608;90;22514;-77
2023/07/13 20:59:40;;;;;;;2.95;1.05;;;;;;;19.89;100.00;100251.69;1447696;90;22959;-78
2023/07/13 21:02:26;;;;;;;2.35;1.52;;;;;;;19.89;100.00;100253.03;1375616;90;21436;-77
2023/07/13 21:04:52;;;;;;;2.55;1.70;;;;;;;19.91;100.00;100254.47;1410257;90;21479;-77
2023/07/13 21:07:20;;;;;;;3.08;1.60;;;;;;;19.90;100.00;100261.37;1442331;90;21486;-78
2023/07/13 21:09:47;;;;;;;4.37;1.60;;;;;;;19.88;99.82;100258.07;1439855;90;21480;-80
2023/07/13 21:12:14;;;;;;;2.00;1.62;;;;;;;19.87;99.90;100255.91;1444500;90;21606;-77
2023/07/13 21:14:40;;;;;;;7.03;1.65;;;;;;;19.84;99.73;100262.53;1446526;90;22412;-79
2023/07/13 21:17:12;;;;;;;3.47;1.70;;;;;;;19.81;100.00;100253.55;1438197;90;21516;-79
2023/07/13 21:19:39;;;;;;;2.90;1.47;;;;;;;19.80;99.97;100258.63;1444979;90;21639;-80
2023/07/13 21:22:05;;;;;;;8.58;1.70;;;;;;;19.77;100.00;100252.87;1447652;90;22369;-81
2023/07/13 21:24:31;;;;;;;4.90;1.42;;;;;;;19.77;100.00;100259.06;1445349;90;21458;-81
2023/07/13 21:26:58;;;;;;;2.67;1.90;;;;;;;19.75;100.00;100259.78;1429123;90;21414;-81
2023/07/13 21:29:24;;;;;;;4.55;1.65;;;;;;;19.73;100.00;100255.13;1437585;90;21562;-81
2023/07/13 21:31:51;;;;;;;1.87;1.72;;;;;;;19.73;100.00;100252.44;1449514;90;21512;-81
2023/07/13 21:34:20;;;;;;;2.02;1.70;;;;;;;19.71;100.00;100259.91;1441257;90;21501;-79
2023/07/13 21:36:47;;;;;;;5.50;2.08;;;;;;;19.69;100.00;100257.94;1432853;90;22516;-81
2023/07/13 21:39:17;;;;;;;4.15;1.87;;;;;;;19.68;99.91;100267.05;1451332;90;21517;-80
2023/07/13 21:41:44;;;;;;;2.30;1.70;;;;;;;19.68;100.00;100273.76;1445331;90;22338;-81